CheckWX is a tool to help pilots better visualize weather data.  It is not intended as a substitute for an official pre-flight weather briefing.

23:24:05 UTC

KDOV METAR
Dover AFB Airport
Dover, Delaware, USA
Current

28 mins ago

KDOV 162256Z COR AUTO 03016G20KT 10SM OVC043 04/M06 A3038 RMK AO2 SLP291 T00431063 RVRNO $ COR 2311
Observed
Nov-16 @ 22:56 UTC
Wind
  • 030° at 16 KTS
  • Gusting to 20 KTS
Visibility
10 SM
Flight Rules
VFR
Cloud Levels
  • Overcast at 4,300' AGL
Temperature
C / 39°F
Dewpoint
-6°C / 21°F
Humidity
48%
Altimeter
30.38" Hg
Pressure
1028.82 hPa
Previous

1 hour ago

KDOV 162156Z COR AUTO 05016G20KT 10SM CLR 04/M06 A3037 RMK AO2 SLP288 T00421064 RVRNO $ COR 2210
Observed
Nov-16 @ 21:56 UTC
Wind
  • 050° at 16 KTS
  • Gusting to 20 KTS
Visibility
10 SM
Flight Rules
VFR
Cloud Levels
  • Clear skies
Temperature
C / 39°F
Dewpoint
-6°C / 21°F
Humidity
48%
Altimeter
30.37" Hg
Pressure
1028.42 hPa
Previous

2 hours ago

KDOV 162056Z 05015KT 10SM CLR 06/M07 A3036 RMK AO2A SLP284 T00571075 53006 $
Observed
Nov-16 @ 20:56 UTC
Wind
  • 050° at 15 KTS
Visibility
10 SM
Flight Rules
VFR
Cloud Levels
  • Clear skies
Temperature
C / 43°F
Dewpoint
-8°C / 18°F
Humidity
36%
Altimeter
30.36" Hg
Pressure
1028.12 hPa